Time;durP1;ratioP1;P1;durP2;ratioP2;P2;SDS_P1;SDS_P2;PMS_P1;PMS_P2;Temp;Humidity;BMP_temperature;BMP_pressure;BME280_temperature;BME280_humidity;BME280_pressure;Samples;Min_cycle;Max_cycle;Signal;HPM_P1;HPM_P2
2022/03/27 00:00:21;;;;;;;22.47;12.97;;;;;;;9.68;45.88;99743.53;5015334;28;20630;-58
2022/03/27 00:02:46;;;;;;;21.00;13.27;;;;;;;9.64;45.75;99747.81;5014918;28;20029;-59
2022/03/27 00:05:12;;;;;;;19.57;12.70;;;;;;;9.65;45.21;99733.31;5012885;28;20411;-59
2022/03/27 00:07:38;;;;;;;19.77;12.13;;;;;;;9.62;45.73;99723.06;5012494;28;20488;-59
2022/03/27 00:10:05;;;;;;;21.97;12.40;;;;;;;9.70;46.30;99752.09;5014607;28;20069;-59
2022/03/27 00:12:31;;;;;;;23.43;13.33;;;;;;;9.61;45.98;99749.50;5014904;28;20041;-59
2022/03/27 00:14:57;;;;;;;21.83;12.87;;;;;;;9.52;46.35;99752.03;5011531;28;20464;-59
2022/03/27 00:17:23;;;;;;;19.70;11.90;;;;;;;9.27;46.60;99737.44;5012610;28;20042;-59
2022/03/27 00:19:49;;;;;;;28.67;14.10;;;;;;;9.35;47.30;99753.69;5015375;28;20035;-59
2022/03/27 00:22:14;;;;;;;17.57;11.37;;;;;;;9.31;47.94;99757.94;5013523;28;20303;-59
2022/03/27 00:24:40;;;;;;;67.97;36.60;;;;;;;9.25;47.45;99759.63;5012820;28;20479;-59
2022/03/27 00:27:06;;;;;;;197.90;80.33;;;;;;;9.09;48.26;99761.25;5012752;28;20029;-59
2022/03/27 00:29:31;;;;;;;19.13;13.20;;;;;;;8.95;48.91;99747.53;5015266;28;20451;-59
2022/03/27 00:31:56;;;;;;;41.97;21.87;;;;;;;8.88;49.71;99758.56;5012264;28;20468;-59
2022/03/27 00:34:22;;;;;;;241.27;120.87;;;;;;;8.87;49.38;99762.81;5012314;28;20033;-59
2022/03/27 00:36:49;;;;;;;194.30;105.20;;;;;;;8.71;49.90;99758.47;5014416;28;20501;-59
2022/03/27 00:39:15;;;;;;;66.23;38.47;;;;;;;8.40;50.63;99742.03;5015497;28;20021;-59
2022/03/27 00:41:40;;;;;;;105.30;50.27;;;;;;;8.33;51.07;99775.22;5012095;28;20507;-59
2022/03/27 00:44:06;;;;;;;30.67;17.50;;;;;;;8.21;51.40;99768.28;5011261;28;20489;-59
2022/03/27 00:46:32;;;;;;;19.97;11.63;;;;;;;7.96;52.04;99749.31;5013858;28;20526;-59
2022/03/27 00:48:57;;;;;;;21.10;11.57;;;;;;;7.96;52.88;99769.75;5014440;28;20048;-56
2022/03/27 00:51:23;;;;;;;21.43;11.47;;;;;;;7.94;53.13;99752.69;5012926;28;20526;-59
2022/03/27 00:53:48;;;;;;;23.37;12.40;;;;;;;8.13;53.17;99750.34;5010673;28;20156;-60
2022/03/27 00:56:14;;;;;;;23.87;12.20;;;;;;;8.33;53.09;99765.84;5014680;28;20034;-58
2022/03/27 00:58:40;;;;;;;20.57;11.50;;;;;;;8.26;53.91;99748.75;5014954;28;20026;-60
2022/03/27 01:01:35;;;;;;;17.00;10.23;;;;;;;8.19;54.17;99739.28;5013033;28;20602;-61
2022/03/27 01:04:01;;;;;;;21.10;12.43;;;;;;;8.21;55.15;99745.28;5013058;28;20138;-56
2022/03/27 01:06:52;;;;;;;175.80;114.57;;;;;;;8.13;55.96;99768.22;5013117;28;20379;-58
2022/03/27 01:09:37;;;;;;;20.33;12.67;;;;;;;7.94;55.44;99733.13;5012260;28;20598;-57
2022/03/27 01:12:17;;;;;;;23.10;10.70;;;;;;;7.95;55.47;99749.31;5010925;28;20061;-58
2022/03/27 01:14:44;;;;;;;28.47;11.73;;;;;;;7.88;55.64;99766.28;5012117;28;20042;-58
2022/03/27 01:17:13;;;;;;;22.10;10.97;;;;;;;7.86;55.89;99765.38;5013320;28;20033;-59
2022/03/27 01:19:42;;;;;;;23.07;13.10;;;;;;;7.92;57.41;99767.16;5012525;28;20387;-59
2022/03/27 01:22:08;;;;;;;21.27;11.83;;;;;;;7.78;58.37;99770.41;5009998;28;20033;-58
2022/03/27 01:24:34;;;;;;;23.23;12.07;;;;;;;7.64;58.69;99771.09;5012397;28;20094;-58
2022/03/27 01:26:59;;;;;;;20.70;11.93;;;;;;;7.63;59.20;99769.41;5012761;28;20026;-58
2022/03/27 01:29:25;;;;;;;56.07;39.67;;;;;;;7.39;59.98;99739.34;5012215;28;20038;-57
2022/03/27 01:31:51;;;;;;;19.43;11.47;;;;;;;7.35;60.43;99756.31;5009711;28;20315;-60
2022/03/27 01:34:18;;;;;;;25.53;15.27;;;;;;;7.22;60.79;99761.25;5012766;28;20029;-60
2022/03/27 01:36:43;;;;;;;59.60;37.27;;;;;;;7.09;61.12;99757.69;5013794;28;20037;-58
2022/03/27 01:39:13;;;;;;;19.40;12.10;;;;;;;6.97;61.68;99754.97;5010204;28;20036;-59
2022/03/27 01:41:40;;;;;;;20.97;10.87;;;;;;;6.86;62.21;99761.63;5009369;28;20038;-59
2022/03/27 01:44:08;;;;;;;74.77;32.47;;;;;;;6.73;62.90;99750.41;5013078;28;20030;-59
2022/03/27 01:46:36;;;;;;;45.67;27.27;;;;;;;6.56;65.37;99739.13;5011573;28;20522;-59
2022/03/27 01:49:04;;;;;;;19.40;11.27;;;;;;;6.49;67.40;99739.88;5009660;28;20108;-60
2022/03/27 01:51:30;;;;;;;31.23;21.63;;;;;;;6.59;69.18;99763.78;5011013;28;20368;-59
2022/03/27 01:53:56;;;;;;;27.33;15.93;;;;;;;6.66;70.37;99758.78;5013530;28;20040;-59
2022/03/27 01:56:21;;;;;;;22.70;12.30;;;;;;;6.86;70.49;99765.03;5011939;28;20033;-60
2022/03/27 01:58:47;;;;;;;22.03;10.43;;;;;;;7.16;70.21;99759.50;5009938;28;20470;-59
2022/03/27 02:01:12;;;;;;;22.93;12.37;;;;;;;7.69;67.17;99756.69;5011213;28;20046;-60
2022/03/27 02:03:37;;;;;;;108.40;50.77;;;;;;;7.91;64.54;99756.09;5011444;28;20064;-59
2022/03/27 02:06:06;;;;;;;19.80;11.40;;;;;;;7.89;64.03;99739.06;5010248;28;20069;-59
2022/03/27 02:08:33;;;;;;;23.70;12.27;;;;;;;8.09;63.56;99753.72;5009387;28;20065;-60
2022/03/27 02:10:59;;;;;;;17.90;10.43;;;;;;;8.14;63.93;99761.41;5010737;28;20379;-59
2022/03/27 02:13:24;;;;;;;18.77;9.93;;;;;;;8.06;64.66;99760.50;5012502;28;20042;-59
2022/03/27 02:15:50;;;;;;;33.20;17.73;;;;;;;8.14;64.50;99759.72;5012501;28;20037;-59
2022/03/27 02:18:16;;;;;;;20.63;11.17;;;;;;;7.98;64.63;99736.56;5012849;28;20080;-60
2022/03/27 02:20:44;;;;;;;20.53;12.40;;;;;;;8.33;65.53;99759.88;5016795;28;20262;-60
2022/03/27 02:23:10;;;;;;;24.80;11.57;;;;;;;8.50;65.09;99753.19;5018022;28;20591;-61
2022/03/27 02:25:36;;;;;;;22.90;10.90;;;;;;;8.61;64.23;99754.16;5010692;28;20037;-60
2022/03/27 02:28:03;;;;;;;19.37;11.33;;;;;;;8.68;62.69;99743.13;5011905;28;20041;-56
2022/03/27 02:30:28;;;;;;;21.73;10.43;;;;;;;8.79;61.77;99763.63;5015832;28;20045;-57
2022/03/27 02:32:54;;;;;;;21.97;12.17;;;;;;;8.63;62.14;99755.00;5017759;28;20483;-58
2022/03/27 02:35:19;;;;;;;17.97;10.53;;;;;;;8.52;63.10;99759.19;5015031;28;20492;-60
2022/03/27 02:37:44;;;;;;;18.27;11.50;;;;;;;8.48;63.56;99762.56;5009789;28;20037;-58
2022/03/27 02:40:10;;;;;;;18.60;10.57;;;;;;;8.32;64.24;99766.69;5013315;28;20040;-60
2022/03/27 02:42:35;;;;;;;17.83;10.77;;;;;;;8.42;65.13;99754.84;5013342;28;20036;-59
2022/03/27 02:45:02;;;;;;;17.23;9.70;;;;;;;8.35;65.93;99774.41;5009964;28;20196;-60
2022/03/27 02:47:27;;;;;;;17.10;9.50;;;;;;;7.97;66.77;99750.19;5010357;28;20144;-59
2022/03/27 02:49:53;;;;;;;20.03;11.53;;;;;;;7.95;67.49;99780.81;5013180;28;20087;-58
2022/03/27 02:52:18;;;;;;;19.40;10.30;;;;;;;7.84;68.05;99787.50;5011960;28;20579;-60
2022/03/27 02:54:44;;;;;;;16.80;10.03;;;;;;;7.66;67.42;99784.75;5009091;28;20034;-58
2022/03/27 02:57:10;;;;;;;17.07;10.50;;;;;;;7.44;66.12;99777.69;5009626;28;20140;-59
2022/03/27 02:59:36;;;;;;;19.17;10.77;;;;;;;7.29;66.40;99778.38;5013192;28;20037;-59
2022/03/27 03:02:03;;;;;;;17.23;10.43;;;;;;;7.26;68.08;99794.47;5010886;28;20038;-59
2022/03/27 03:04:30;;;;;;;17.87;10.17;;;;;;;7.14;68.90;99799.41;5010724;28;20030;-59
2022/03/27 03:06:56;;;;;;;21.73;11.07;;;;;;;7.02;70.27;99804.34;5010526;28;20044;-60
2022/03/27 03:09:21;;;;;;;17.77;9.67;;;;;;;6.94;71.74;99792.31;5012027;28;20053;-59
2022/03/27 03:11:47;;;;;;;20.43;10.70;;;;;;;6.89;72.99;99782.94;5010215;28;20446;-58
2022/03/27 03:14:13;;;;;;;19.80;11.30;;;;;;;6.93;74.33;99786.38;5009730;28;20085;-58
2022/03/27 03:16:39;;;;;;;21.10;11.07;;;;;;;6.95;74.53;99796.59;5012640;28;20466;-58
2022/03/27 03:19:05;;;;;;;21.77;10.80;;;;;;;6.90;74.56;99804.19;5013484;28;20080;-60
2022/03/27 03:21:31;;;;;;;15.53;9.73;;;;;;;6.85;75.59;99821.94;5009800;28;20366;-60
2022/03/27 03:23:57;;;;;;;18.00;11.10;;;;;;;6.66;78.09;99814.00;5009466;28;20037;-60
2022/03/27 03:26:22;;;;;;;17.00;10.53;;;;;;;6.64;80.30;99830.94;5011014;28;20045;-59
2022/03/27 03:28:48;;;;;;;18.23;10.03;;;;;;;6.55;81.34;99833.34;5015063;28;20036;-58
2022/03/27 03:31:14;;;;;;;17.63;10.23;;;;;;;6.48;81.85;99837.50;5012900;28;20092;-60
2022/03/27 03:33:40;;;;;;;19.50;11.47;;;;;;;6.47;82.15;99840.00;5011299;28;20182;-59
2022/03/27 03:36:07;;;;;;;23.00;12.40;;;;;;;6.48;82.87;99846.81;5012208;28;20121;-60
2022/03/27 03:38:33;;;;;;;25.27;12.97;;;;;;;6.47;82.39;99828.13;5015476;28;20108;-59
2022/03/27 03:40:59;;;;;;;19.37;10.73;;;;;;;6.69;82.72;99849.72;5011313;28;20037;-59
2022/03/27 03:43:24;;;;;;;17.73;10.30;;;;;;;6.64;81.81;99828.41;5010748;28;20025;-59
2022/03/27 03:45:50;;;;;;;18.17;10.67;;;;;;;6.81;81.23;99857.56;5013904;28;20471;-60
2022/03/27 03:48:16;;;;;;;16.23;9.50;;;;;;;6.70;82.97;99843.81;5014746;28;20108;-59
2022/03/27 03:50:41;;;;;;;17.83;9.33;;;;;;;6.78;83.80;99857.53;5012724;28;20033;-58
2022/03/27 03:53:07;;;;;;;19.07;10.63;;;;;;;6.72;84.09;99858.28;5011210;28;20087;-59
2022/03/27 03:55:33;;;;;;;20.13;10.97;;;;;;;6.72;85.08;99863.38;5014482;28;20071;-59
2022/03/27 03:57:58;;;;;;;20.57;11.83;;;;;;;6.71;86.37;99865.88;5015167;28;20037;-59
2022/03/27 04:00:25;;;;;;;17.90;10.90;;;;;;;6.71;87.25;99863.34;5010328;28;20033;-58
2022/03/27 04:02:51;;;;;;;21.30;11.50;;;;;;;6.65;88.02;99860.72;5013292;28;20029;-60
2022/03/27 04:05:16;;;;;;;19.37;10.70;;;;;;;6.65;88.61;99868.34;5012797;28;20057;-60
2022/03/27 04:07:43;;;;;;;17.20;11.30;;;;;;;6.72;88.95;99878.66;5013703;28;20133;-58
2022/03/27 04:10:09;;;;;;;21.63;12.57;;;;;;;6.64;89.97;99867.47;5010406;28;20054;-59
2022/03/27 04:12:34;;;;;;;22.37;11.00;;;;;;;6.73;89.89;99898.22;5011384;28;20051;-59
2022/03/27 04:14:59;;;;;;;18.80;10.97;;;;;;;6.72;88.87;99899.03;5013368;28;20472;-59
2022/03/27 04:17:25;;;;;;;19.60;11.70;;;;;;;6.60;88.37;99888.66;5013373;28;20409;-59
2022/03/27 04:19:51;;;;;;;19.67;11.20;;;;;;;6.68;88.61;99904.94;5010792;28;20038;-59
2022/03/27 04:22:16;;;;;;;18.27;10.60;;;;;;;6.63;89.69;99910.75;5012139;28;20439;-59
2022/03/27 04:24:42;;;;;;;21.87;11.47;;;;;;;6.54;90.55;99906.38;5012070;28;20037;-60
2022/03/27 04:27:08;;;;;;;21.53;12.23;;;;;;;6.43;91.99;99896.00;5013408;28;20041;-59
2022/03/27 04:29:33;;;;;;;19.53;12.63;;;;;;;6.37;94.13;99905.22;5011610;28;20034;-60
2022/03/27 04:31:58;;;;;;;20.80;12.67;;;;;;;6.22;97.00;99893.06;5012338;28;20434;-60
2022/03/27 04:34:24;;;;;;;24.73;13.40;;;;;;;6.24;98.53;99916.00;5016202;28;20029;-60
2022/03/27 04:36:50;;;;;;;17.73;11.37;;;;;;;6.17;99.34;99919.25;5013038;28;20441;-59
2022/03/27 04:39:15;;;;;;;20.53;11.63;;;;;;;6.11;100.00;99925.09;5010982;28;20529;-60
2022/03/27 04:41:41;;;;;;;20.10;12.33;;;;;;;5.94;100.00;99909.47;5014771;28;20141;-58
2022/03/27 04:44:08;;;;;;;17.70;11.53;;;;;;;5.95;100.00;99917.97;5014824;28;20468;-57
2022/03/27 04:46:33;;;;;;;21.40;13.07;;;;;;;5.92;100.00;99923.88;5011874;28;20030;-58
2022/03/27 04:48:59;;;;;;;19.57;11.27;;;;;;;5.98;100.00;99939.25;5012753;28;20038;-58
2022/03/27 04:51:24;;;;;;;20.93;12.17;;;;;;;5.94;100.00;99941.75;5014497;28;20037;-58
2022/03/27 04:53:50;;;;;;;25.07;13.70;;;;;;;5.78;100.00;99921.84;5016019;28;20475;-60
2022/03/27 04:56:17;;;;;;;20.60;12.30;;;;;;;5.88;100.00;99941.59;5013065;28;20086;-60
2022/03/27 04:58:42;;;;;;;25.60;14.00;;;;;;;5.87;100.00;99947.50;5010690;28;20530;-60
2022/03/27 05:01:08;;;;;;;23.07;12.77;;;;;;;5.73;100.00;99924.28;5015039;28;20025;-58
2022/03/27 05:03:33;;;;;;;19.27;12.43;;;;;;;5.82;100.00;99946.50;5014268;28;20038;-59
2022/03/27 05:05:59;;;;;;;19.67;11.43;;;;;;;5.73;100.00;99931.91;5011773;28;20318;-59
2022/03/27 05:08:26;;;;;;;16.83;10.73;;;;;;;5.83;100.00;99946.56;5012195;28;20120;-58
2022/03/27 05:10:51;;;;;;;19.60;11.43;;;;;;;5.79;100.00;99934.59;5015407;28;20033;-59
2022/03/27 05:13:18;;;;;;;22.87;11.70;;;;;;;5.91;100.00;99950.16;5015436;28;20033;-59
2022/03/27 05:15:44;;;;;;;19.17;11.73;;;;;;;5.86;100.00;99938.13;5011780;28;20040;-59
2022/03/27 05:18:10;;;;;;;17.73;10.90;;;;;;;6.00;100.00;99958.81;5012250;28;20120;-59
2022/03/27 05:20:40;;;;;;;19.80;11.70;;;;;;;6.01;100.00;99942.72;5014448;28;20636;-59
2022/03/27 05:23:07;;;;;;;18.33;11.87;;;;;;;6.05;100.00;99940.25;5013862;28;20037;-58
2022/03/27 05:25:40;;;;;;;23.63;12.23;;;;;;;6.26;100.00;99960.19;5010517;28;20141;-59
2022/03/27 05:28:07;;;;;;;15.60;10.40;;;;;;;6.33;100.00;99952.69;5012621;28;20136;-59
2022/03/27 05:30:33;;;;;;;20.07;10.83;;;;;;;6.45;100.00;99949.50;5014143;28;20543;-59
2022/03/27 05:32:59;;;;;;;18.00;11.97;;;;;;;6.51;100.00;99936.91;5012752;28;20080;-63
2022/03/27 05:35:24;;;;;;;22.73;12.87;;;;;;;6.83;100.00;99970.59;5010209;28;20030;-59
2022/03/27 05:37:51;;;;;;;21.17;11.97;;;;;;;7.08;100.00;99967.63;5011979;28;20038;-58
2022/03/27 05:40:19;;;;;;;26.07;14.10;;;;;;;7.22;100.00;99973.78;5013428;28;20033;-60
2022/03/27 05:42:45;;;;;;;18.23;11.53;;;;;;;7.33;100.00;99968.88;5011180;28;20408;-59
2022/03/27 05:45:11;;;;;;;25.73;13.57;;;;;;;7.39;100.00;99970.63;5011590;28;20107;-59
2022/03/27 05:47:43;;;;;;;20.23;11.83;;;;;;;7.48;100.00;99961.44;5013430;28;20450;-59
2022/03/27 05:50:14;;;;;;;20.70;12.13;;;;;;;7.67;100.00;99972.78;5013043;28;20540;-58
2022/03/27 05:52:42;;;;;;;31.27;15.83;;;;;;;7.82;100.00;99988.28;5000177;28;20119;-59
2022/03/27 05:55:07;;;;;;;19.33;10.43;;;;;;;7.89;100.00;99984.16;5008939;28;20030;-60
2022/03/27 05:57:33;;;;;;;22.13;12.60;;;;;;;7.87;100.00;99975.59;5014344;28;20424;-59
2022/03/27 05:59:58;;;;;;;16.40;10.53;;;;;;;7.92;100.00;99967.16;5012933;28;20042;-59
2022/03/27 06:02:24;;;;;;;26.57;14.27;;;;;;;8.08;100.00;99991.19;5009867;28;20083;-58
2022/03/27 06:04:51;;;;;;;16.60;10.43;;;;;;;8.13;100.00;99994.69;5008799;28;20507;-59
2022/03/27 06:07:16;;;;;;;18.00;11.23;;;;;;;8.25;100.00;99992.25;5014844;28;20033;-58
2022/03/27 06:09:42;;;;;;;17.70;9.10;;;;;;;8.46;100.00;99997.66;5014716;28;20057;-58
2022/03/27 06:12:08;;;;;;;12.67;9.03;;;;;;;8.54;100.00;99979.84;5010618;28;20029;-59
2022/03/27 06:14:33;;;;;;;11.93;8.93;;;;;;;8.86;100.00;99993.84;5010450;28;20069;-59
2022/03/27 06:16:59;;;;;;;12.90;7.70;;;;;;;9.10;100.00;99995.75;5012145;28;20113;-59
2022/03/27 06:19:24;;;;;;;13.90;9.20;;;;;;;9.26;100.00;99983.94;5011025;28;20117;-60
2022/03/27 06:21:50;;;;;;;15.53;9.83;;;;;;;9.57;100.00;99997.00;5009455;28;20116;-60
2022/03/27 06:24:15;;;;;;;13.40;8.43;;;;;;;9.65;99.79;99986.78;5010968;28;20072;-60
2022/03/27 06:26:42;;;;;;;14.87;9.47;;;;;;;10.00;98.93;99994.69;5013247;28;20421;-61
2022/03/27 06:29:14;;;;;;;12.43;8.43;;;;;;;10.13;96.11;100004.16;5011881;28;20041;-59
2022/03/27 06:31:40;;;;;;;14.73;9.90;;;;;;;9.86;96.34;100002.28;5009928;28;20050;-59
2022/03/27 06:34:06;;;;;;;15.17;8.83;;;;;;;9.71;98.66;100003.91;5012547;28;20312;-59
2022/03/27 06:36:32;;;;;;;16.23;9.67;;;;;;;9.67;98.38;99999.63;5011120;28;20200;-59
2022/03/27 06:38:58;;;;;;;14.13;8.67;;;;;;;9.97;98.30;99998.06;5019138;28;20455;-59
2022/03/27 06:41:24;;;;;;;14.03;9.10;;;;;;;10.08;97.39;100006.69;5009659;28;20144;-60
2022/03/27 06:43:49;;;;;;;16.97;10.23;;;;;;;9.94;97.86;99994.63;5012666;28;20100;-60
2022/03/27 06:46:17;;;;;;;14.13;9.77;;;;;;;10.15;97.82;99994.78;5012344;28;20038;-60
2022/03/27 06:48:47;;;;;;;16.90;9.17;;;;;;;10.37;96.10;99998.28;5010040;28;20068;-60
2022/03/27 06:51:13;;;;;;;13.63;9.40;;;;;;;10.64;94.19;99995.81;5009491;28;20033;-55
2022/03/27 06:53:39;;;;;;;12.07;8.50;;;;;;;10.90;92.82;100014.72;5012431;28;20038;-59
2022/03/27 06:56:05;;;;;;;14.00;8.90;;;;;;;10.90;91.77;99991.63;5013248;28;20313;-60
2022/03/27 06:58:31;;;;;;;14.53;8.80;;;;;;;11.05;89.84;99997.59;5009232;28;20419;-59
2022/03/27 07:03:41;;;;;;;12.75;8.60;;;;;;;11.03;90.72;100001.88;5014189;28;20053;-59
2022/03/27 07:06:07;;;;;;;20.27;9.33;;;;;;;10.92;91.34;100012.13;5014504;28;20472;-59
2022/03/27 07:08:32;;;;;;;16.73;9.13;;;;;;;11.09;90.21;100013.00;5010849;28;20052;-59
2022/03/27 07:10:58;;;;;;;13.88;9.32;;;;;;;11.25;89.67;100006.16;5012121;28;20029;-59
2022/03/27 07:13:23;;;;;;;14.30;8.63;;;;;;;11.53;88.62;100012.16;5015526;28;20467;-59
2022/03/27 07:15:49;;;;;;;13.35;8.90;;;;;;;11.19;90.78;100013.88;5015082;28;20057;-58
2022/03/27 07:18:18;;;;;;;15.73;10.68;;;;;;;11.33;89.86;100014.75;5011546;28;20603;-59
2022/03/27 07:20:46;;;;;;;14.90;8.70;;;;;;;11.11;91.23;100010.44;5014830;28;20122;-59
2022/03/27 07:23:16;;;;;;;16.60;10.37;;;;;;;10.61;95.36;100002.66;5016099;28;20047;-59
2022/03/27 07:25:43;;;;;;;13.33;9.30;;;;;;;10.84;95.55;99999.28;5013634;28;20495;-59
2022/03/27 07:28:11;;;;;;;12.57;9.70;;;;;;;10.73;96.63;99987.31;5013603;28;20029;-59
2022/03/27 07:30:37;;;;;;;15.13;9.40;;;;;;;10.75;95.12;100014.66;5014440;28;20407;-58
2022/03/27 07:33:03;;;;;;;16.08;10.15;;;;;;;10.46;98.32;100003.44;5016852;28;20041;-59
2022/03/27 07:35:32;;;;;;;13.60;9.27;;;;;;;10.83;97.51;100018.09;5013482;28;20025;-58
2022/03/27 07:37:59;;;;;;;14.70;9.57;;;;;;;11.04;96.43;100003.56;5010785;28;20510;-59
2022/03/27 07:40:24;;;;;;;11.73;8.57;;;;;;;11.53;94.49;100015.59;5013821;28;20483;-59
2022/03/27 07:42:51;;;;;;;15.13;10.13;;;;;;;11.89;90.21;100000.13;5015805;28;20072;-60
2022/03/27 07:45:24;;;;;;;14.00;10.07;;;;;;;12.24;84.28;100005.19;5013281;28;20658;-62
2022/03/27 07:47:51;;;;;;;15.20;9.25;;;;;;;12.43;82.32;100008.53;5012364;28;20060;-59
2022/03/27 07:50:19;;;;;;;10.77;8.38;;;;;;;12.19;79.86;100004.34;5014853;28;20057;-59
2022/03/27 07:52:44;;;;;;;9.93;7.63;;;;;;;12.35;75.22;100021.41;5015792;28;20033;-60
2022/03/27 07:55:13;;;;;;;10.77;8.13;;;;;;;12.06;71.61;100009.50;5012428;28;20029;-60
2022/03/27 07:57:38;;;;;;;11.93;8.20;;;;;;;11.98;73.55;100014.69;5011959;28;20025;-60
2022/03/27 08:00:08;;;;;;;11.57;8.82;;;;;;;12.09;73.51;100020.66;5015202;28;20030;-60
2022/03/27 08:02:34;;;;;;;13.85;7.15;;;;;;;12.18;70.25;100012.03;5015442;28;20040;-59
2022/03/27 08:04:59;;;;;;;12.05;6.75;;;;;;;12.18;68.67;100007.75;5012624;28;20045;-60
2022/03/27 08:07:25;;;;;;;11.38;7.53;;;;;;;12.04;69.43;100001.81;5014296;28;20037;-59
2022/03/27 08:09:50;;;;;;;8.38;6.93;;;;;;;12.17;69.23;99997.50;5015608;28;20081;-59
2022/03/27 08:12:17;;;;;;;9.82;6.65;;;;;;;12.39;66.45;100016.28;5014841;28;20036;-60
2022/03/27 08:14:43;;;;;;;12.75;7.35;;;;;;;12.32;66.05;100010.28;5012954;28;20564;-60
2022/03/27 08:17:09;;;;;;;10.20;6.35;;;;;;;12.44;62.41;100012.81;5014503;28;20034;-61
2022/03/27 08:19:35;;;;;;;8.55;6.20;;;;;;;12.51;60.79;99993.94;5014898;28;20393;-59
2022/03/27 08:22:01;;;;;;;10.73;6.72;;;;;;;12.71;59.57;100012.69;5014794;28;20026;-61
2022/03/27 08:24:27;;;;;;;8.60;6.53;;;;;;;12.50;58.68;100002.50;5005980;28;20606;-60
2022/03/27 08:26:55;;;;;;;10.18;6.60;;;;;;;12.61;59.49;100010.16;5008209;28;20065;-62
2022/03/27 08:29:25;;;;;;;10.98;6.53;;;;;;;12.67;58.81;100003.28;5014857;28;20022;-61
2022/03/27 08:31:54;;;;;;;7.53;6.18;;;;;;;12.53;58.57;99988.75;5013513;28;20109;-60
2022/03/27 08:34:21;;;;;;;9.63;6.68;;;;;;;12.35;58.32;99975.13;5012917;28;20029;-61
2022/03/27 08:36:47;;;;;;;7.40;5.82;;;;;;;12.71;58.62;100002.38;5014932;28;20037;-60
2022/03/27 08:39:13;;;;;;;10.13;7.32;;;;;;;12.26;59.85;99988.00;5017081;28;20160;-60
2022/03/27 08:41:48;;;;;;;11.77;7.25;;;;;;;12.33;60.55;99997.44;5012204;28;20525;-61
2022/03/27 08:44:15;;;;;;;10.85;7.68;;;;;;;12.44;60.81;99999.94;5010880;28;20100;-61
2022/03/27 08:46:42;;;;;;;10.57;7.25;;;;;;;12.74;59.93;100004.06;5015037;28;20038;-61
2022/03/27 08:49:11;;;;;;;8.43;7.18;;;;;;;12.57;58.71;100005.88;5011239;28;20168;-60
2022/03/27 08:51:55;;;;;;;11.30;6.85;;;;;;;12.33;59.88;99991.44;5009934;28;20129;-61
2022/03/27 08:54:24;;;;;;;8.30;7.22;;;;;;;12.50;60.25;100014.50;5013096;28;20049;-61
2022/03/27 08:57:35;;;;;;;11.82;8.18;;;;;;;12.62;60.57;100014.44;5016000;28;20113;-61
2022/03/27 09:00:00;;;;;;;11.20;7.43;;;;;;;12.75;60.08;100016.94;4974207;28;20037;-61
2022/03/27 09:02:27;;;;;;;13.27;8.30;;;;;;;12.65;60.45;100017.84;4974584;28;20039;-59
2022/03/27 09:04:54;;;;;;;11.35;8.45;;;;;;;12.57;60.29;99991.31;4976933;28;20054;-60
2022/03/27 09:07:23;;;;;;;9.93;7.60;;;;;;;12.65;59.44;100025.56;4977244;28;20106;-59
2022/03/27 09:09:48;;;;;;;13.07;7.70;;;;;;;12.62;59.02;100027.31;4974331;28;20121;-60
2022/03/27 09:12:16;;;;;;;10.40;7.28;;;;;;;12.80;58.77;100022.94;4973278;28;20484;-60
2022/03/27 09:14:42;;;;;;;9.63;7.10;;;;;;;12.78;58.28;100029.78;4976709;28;20366;-60
2022/03/27 09:17:08;;;;;;;12.50;9.05;;;;;;;12.78;58.65;100014.34;4977860;28;20038;-60
2022/03/27 09:19:43;;;;;;;13.27;8.05;;;;;;;12.85;59.21;100014.31;4972802;28;20031;-59
2022/03/27 09:22:24;;;;;;;12.68;8.27;;;;;;;13.06;58.39;100030.50;4973711;28;20031;-61
2022/03/27 09:25:06;;;;;;;10.43;8.43;;;;;;;12.80;59.54;100019.50;4976114;28;20049;-62
2022/03/27 09:27:35;;;;;;;9.98;8.90;;;;;;;12.73;59.33;100008.38;4975765;28;20266;-59
2022/03/27 09:30:09;;;;;;;15.82;9.27;;;;;;;12.83;58.91;100014.31;4972887;28;20114;-60
2022/03/27 09:32:43;;;;;;;10.20;7.80;;;;;;;12.90;59.15;100022.88;4976649;28;20091;-61
2022/03/27 09:35:10;;;;;;;13.20;8.75;;;;;;;13.04;58.59;100021.06;4977368;28;20115;-60
2022/03/27 09:37:41;;;;;;;10.85;8.15;;;;;;;13.23;58.75;100012.38;5004771;28;20041;-60
2022/03/27 09:40:08;;;;;;;11.52;9.07;;;;;;;13.10;58.30;100019.34;5010103;28;20042;-61
2022/03/27 09:42:37;;;;;;;12.93;9.48;;;;;;;13.05;57.94;100008.19;5013963;28;20025;-61
2022/03/27 09:45:20;;;;;;;19.58;10.07;;;;;;;12.65;58.94;99986.97;5014001;28;20071;-62
2022/03/27 09:47:53;;;;;;;12.50;8.75;;;;;;;12.72;59.79;100011.81;5010461;28;20041;-60
2022/03/27 09:50:38;;;;;;;11.55;9.43;;;;;;;12.83;59.20;100007.47;5012918;28;20030;-60
2022/03/27 09:53:21;;;;;;;15.88;9.75;;;;;;;13.05;59.08;100020.19;5012736;28;20064;-60
2022/03/27 09:55:51;;;;;;;33.25;27.15;;;;;;;12.91;59.03;100011.69;5012113;28;20450;-62
2022/03/27 09:58:42;;;;;;;23.95;15.68;;;;;;;12.86;58.95;100023.75;5011972;28;20569;-59
2022/03/27 10:01:18;;;;;;;27.83;23.63;;;;;;;12.87;60.04;100013.44;5012633;28;20049;-59
2022/03/27 10:03:59;;;;;;;14.48;9.55;;;;;;;13.02;59.79;100012.50;5013926;28;20055;-54
2022/03/27 10:06:31;;;;;;;19.20;10.93;;;;;;;13.10;59.40;100008.16;5009123;28;20060;-64
2022/03/27 10:08:57;;;;;;;31.23;28.25;;;;;;;13.20;59.51;100007.22;5009022;28;20396;-60
2022/03/27 10:11:23;;;;;;;56.88;52.10;;;;;;;13.19;59.67;100000.41;5014589;28;20048;-61
2022/03/27 10:13:52;;;;;;;131.23;122.53;;;;;;;13.31;58.90;99986.56;5014917;28;20466;-61
2022/03/27 10:16:34;;;;;;;35.75;28.75;;;;;;;13.51;59.17;99997.53;5012072;28;20026;-59
2022/03/27 10:19:34;;;;;;;51.50;47.20;;;;;;;13.56;58.02;100003.50;5011000;28;20193;-60
2022/03/27 10:22:02;;;;;;;17.98;13.63;;;;;;;13.33;58.34;99977.09;5013346;28;20044;-60
2022/03/27 10:24:32;;;;;;;20.55;11.88;;;;;;;13.52;57.62;99983.78;5012040;28;20128;-60
2022/03/27 10:27:02;;;;;;;17.60;11.65;;;;;;;13.64;57.74;99993.97;5010641;28;20384;-60
2022/03/27 10:29:28;;;;;;;17.92;10.93;;;;;;;13.76;58.04;99985.28;5016236;28;20030;-60
2022/03/27 10:31:56;;;;;;;24.95;14.30;;;;;;;13.92;57.49;99979.94;5012241;28;20144;-61
2022/03/27 10:34:23;;;;;;;20.45;12.73;;;;;;;13.94;56.84;99988.53;5009979;28;20547;-61
2022/03/27 10:36:59;;;;;;;17.23;10.70;;;;;;;13.85;57.04;99977.44;5007395;28;20560;-61
2022/03/27 10:39:34;;;;;;;23.13;18.55;;;;;;;13.95;57.31;99974.78;5012812;28;20141;-61
2022/03/27 10:42:18;;;;;;;16.48;10.68;;;;;;;13.84;57.51;99971.44;5012869;28;20102;-62
2022/03/27 10:44:58;;;;;;;25.50;19.02;;;;;;;13.57;57.89;99944.25;5009209;28;20037;-61
2022/03/27 10:47:25;;;;;;;16.65;11.18;;;;;;;13.66;57.74;99966.50;5011778;28;20038;-61
2022/03/27 10:50:04;;;;;;;21.73;12.32;;;;;;;13.61;58.33;99971.69;5014325;28;20479;-61
2022/03/27 10:52:54;;;;;;;22.30;12.82;;;;;;;13.49;58.36;99930.59;5009550;28;20029;-61
2022/03/27 10:55:19;;;;;;;30.30;20.40;;;;;;;13.50;58.33;99937.41;5006418;28;20513;-61
2022/03/27 10:57:49;;;;;;;14.65;9.82;;;;;;;13.62;58.93;99951.94;5012887;28;20033;-61
2022/03/27 11:00:35;;;;;;;45.97;41.42;;;;;;;13.66;58.96;99923.50;5018817;28;20385;-61
2022/03/27 11:03:00;;;;;;;106.55;98.88;;;;;;;13.70;58.23;99944.97;5008904;28;20030;-61
2022/03/27 11:05:29;;;;;;;20.77;12.18;;;;;;;13.77;57.91;99938.88;5010917;28;20133;-60
2022/03/27 11:08:16;;;;;;;23.92;19.73;;;;;;;13.73;57.97;99935.47;5012941;28;20145;-60
2022/03/27 11:10:59;;;;;;;17.08;12.05;;;;;;;13.87;58.32;99919.88;5011817;28;20525;-60
2022/03/27 11:13:33;;;;;;;32.85;27.65;;;;;;;14.01;57.81;99925.69;5007723;28;20483;-60
2022/03/27 11:16:13;;;;;;;14.32;9.38;;;;;;;14.29;57.28;99921.06;5010445;28;20062;-60
2022/03/27 11:18:43;;;;;;;152.00;136.48;;;;;;;14.32;56.81;99914.97;5012065;28;20044;-60
2022/03/27 11:21:11;;;;;;;157.18;144.05;;;;;;;14.31;57.07;99898.66;5008672;28;20443;-61
2022/03/27 11:23:38;;;;;;;439.40;372.33;;;;;;;14.24;56.69;99897.03;5007377;28;20041;-59
2022/03/27 11:26:19;;;;;;;10.82;9.73;;;;;;;14.40;56.67;99903.72;5010182;28;20538;-61
2022/03/27 11:28:50;;;;;;;12.20;10.65;;;;;;;14.26;57.59;99900.44;5009189;28;20041;-60